Alexandria International Airport
KAEX : now visible

Airfield :











YOU CAN JOIN US ON...

 
LOGIN :

Register | Disclaimer

   EN    FR    IT 

 









Legend :    VFR   Marginal VFR   IFR   Intensive IFR   Very Intensive IFR
Visi :
Ceiling :
>= 8 km
>= 3000ft
5 to 8 km
1000 to 3000 ft
1500m to 5 km
500 to 1000 ft
800 to 1500m
200 to 500 ft
< 800m
< 200 ft
Symbols :   Thunderstorms  Fog  Heavy snow  Heavy precipitations  Wind > 20 kt






- Airport Elevation : 89 ft
- IATA code : AEX


KAEX - Alexandria International

CURRENT METAR :
  • 121753Z 01008KT 10SM OVC007 18/16 A3013 RMK AO2 RAB1654E08 SLP206 P0000 60001 T01830156 10183 20172 58003

EXPIRED METARs :
  • 121653Z 01008KT 10SM OVC007 18/15 A3014 RMK AO2 SLP209 T01780150
  • 121635Z 03006KT 10SM OVC007 18/16 A3014 RMK AO2 T01780156
  • 121553Z 01006KT 10SM OVC010 18/16 A3014 RMK AO2 CIG 007V014 SLP211 T01780156
  • 121548Z 01007KT 10SM OVC010 18/16 A3014 RMK AO2 CIG 007V013

TAF KAEX
Valid from the 12 at 18:00 until the 13 at 18:00 UTC


121720Z 1218/1318 02009KT P6SM VCSH OVC008
FM122000 02010KT P6SM BKN015 OVC050
FM131200 03009KT P6SM OVC050
KZHU FIR / North America



MET'MAP, your aeronautical weather chart ! - Copyright ORBIFLY December 2007 - Disclaimer

ORBIFLY MET'MAP TEAM :

Programming & Development : Alexandra Zaïnal
Concept & original design : Baudouin d'Aumeries
Assistance for programming : Marc-Olivier Méhu
Technical & hardware support : Manuel Goepfert

Contact : metmap@orbifly.com




SOURCES & CREDITS :

   NOAA       Earth
Advisory